Decoded Metar for SARE (RESISTENCIA in ARGENTINA) (IATA:RES) | Meteo·Mobile Aviation Weather
aviador You're here:

SARE Decoded Metar

RESISTENCIA in ARGENTINA
Report Time2019-07-22 01:00:00
UTC Time2019-07-22 01:11:22
Flight Rules vfr VFR
Wind050° at 10 kt
W.Decomp.*RWY 03: 8.6 kt HW 5.2 kt RCW
Visibility9999 m
Phenomena:N/A
Clouds:N/A
Expected CloudBase > 2,800 ft AGL from Temp-Dew spread
CeilingNone
Temp24°C (ISA +9)
Dew Point17°C (65% RH)
AAT22.8°C
QNH1003 hPa
Density Alt1,850 ft
Elevation171 ft
Report Wrong Elevation
Raw Report
METAR SARE 220100Z 05010KT CAVOK 24/17 Q1003=

Extra information for SARE:More info

Metar Taf Metar & Taf Last 4 Metars F.Rules Stats Wind Profile Meteogram Temp Stats Airport Information Weather charts Add Link Nearby VenuesMetar ALERT Operation Metar Decoded Social comments